Flight Track Log - Related Links

Times and Time Zones

All times are in EDT time to prevent confusion due to time zone crossing. See the NKS647 flight status page for this flight to view local times or setup timezone preferences in your user account.

Time Position Orientation Groundspeed Altitude Reporting Facility
EDT Latitude Longitude Course Direction KTS MPH feet Rate Location/Type
Fri 04:42:41 AM 43.1046 -78.9853 228° Southwest 149 171 2,300  Level FlightAware ADS-B (CYYZ)
Fri 04:42:45 AM 43.1019 -78.9881 214° Southwest 150 173 2,500 2,000 Climbing FlightAware ADS-B (CYYZ)
Fri 04:42:50 AM 43.0989 -78.9902 205° Southwest 157 181 2,600 1,200 Climbing FlightAware ADS-B (CYYZ)
Fri 04:42:55 AM 43.0953 -78.9914 193° South 167 192 2,700 1,091 Climbing FlightAware ADS-B (CYYZ)
Fri 04:43:01 AM 43.0906 -78.9917 178° South 184 212 2,800 1,200 Climbing FlightAware ADS-B (CYYZ)
Fri 04:43:05 AM 43.0871 -78.9910 168° South 193 222 2,900 947 Climbing FlightAware ADS-B (CYYZ)
Fri 04:43:20 AM 43.0731 -78.9856 162° South 216 249 3,100 968 Climbing FlightAware ADS-B (CYYZ)
Fri 04:43:36 AM 43.0575 -78.9794 165° South 240 276 3,400 1,161 Climbing FlightAware ADS-B (CYYZ)
Fri 04:43:51 AM 43.0403 -78.9743 168° South 261 300 3,700 2,276 Climbing FlightAware ADS-B (CYYZ)
Fri 04:44:05 AM 43.0222 -78.9697 169° South 266 306 4,500 3,000 Climbing FlightAware ADS-B (CYYZ)
Fri 04:44:07 AM 43.0228 -78.9698 169° South 268 308 4,500 3,600 Level FlightAware ADS-B (EPLB / LUZ)
Fri 04:44:20 AM 43.0042 -78.9651 169° South 264 304 5,400 3,857 Climbing FlightAware ADS-B (CYYZ)
Fri 04:44:35 AM 42.9862 -78.9605 169° South 265 305 6,300 3,097 Climbing FlightAware ADS-B (CYYZ)
Fri 04:44:51 AM 42.9679 -78.9558 168° South 272 313 7,000 2,800 Climbing FlightAware ADS-B (CYYZ)
Fri 04:45:05 AM 42.9497 -78.9508 168° South 274 315 7,700 3,103 Climbing FlightAware ADS-B (CYYZ)
Fri 04:45:20 AM 42.9300 -78.9449 167° South 279 321 8,500 2,800 Climbing FlightAware ADS-B (CYYZ)
Fri 04:45:35 AM 42.9109 -78.9392 167° South 288 331 9,100 2,400 Climbing FlightAware ADS-B (CYYZ)
Fri 04:45:50 AM 42.8911 -78.9347 175° South 291 335 9,700 2,667 Climbing FlightAware ADS-B (CYYZ)
Fri 04:46:20 AM 42.8504 -78.9355 183° South 299 344 11,100 1,900 Climbing FlightAware ADS-B (CYYZ)
Fri 04:46:50 AM 42.8066 -78.9396 185° South 334 384 11,600 1,000 Climbing FlightAware ADS-B (CYYZ)
Fri 04:47:20 AM 42.7587 -78.9435 183° South 366 421 12,100 1,300 Climbing FlightAware ADS-B (CYYZ)
Fri 04:47:50 AM 42.7058 -78.9463 182° South 383 441 12,900 2,000 Climbing FlightAware ADS-B (CYYZ)
Fri 04:48:20 AM 42.6518 -78.9485 182° South 387 445 14,100 2,300 Climbing FlightAware ADS-B (CYYZ)
Fri 04:48:50 AM 42.5991 -78.9509 183° South 394 453 15,200 2,200 Climbing FlightAware ADS-B (CYYZ)
Fri 04:49:20 AM 42.5424 -78.9536 183° South 398 458 16,300 1,967 Climbing FlightAware ADS-B (CYYZ)
Fri 04:49:51 AM 42.4863 -78.9564 183° South 407 468 17,200 1,800 Climbing FlightAware ADS-B (CYYZ)
Fri 04:50:20 AM 42.4302 -78.9591 183° South 413 475 18,100 1,800 Climbing FlightAware ADS-B (CYYZ)
Fri 04:50:51 AM 42.3716 -78.9621 183° South 419 482 19,000 1,800 Climbing FlightAware ADS-B (CYYZ)
Fri 04:51:20 AM 42.3158 -78.9647 183° South 422 486 19,900 1,729 Climbing FlightAware ADS-B (CYYZ)
Fri 04:51:50 AM 42.2551 -78.9676 183° South 429 494 20,700 1,600 Climbing FlightAware ADS-B (CYYZ)
Fri 04:52:20 AM 42.1947 -78.9705 183° South 434 499 21,500 1,279 Climbing FlightAware ADS-B (CYYZ)
Fri 04:52:51 AM 42.1343 -78.9734 183° South 445 512 22,000 1,279 Climbing FlightAware ADS-B (CYYZ)
Fri 04:53:21 AM 42.0721 -78.9764 183° South 446 513 22,800 1,400 Climbing FlightAware ADS-B (CYYZ)
Fri 04:53:51 AM 42.0094 -78.9794 183° South 453 521 23,400 1,300 Climbing FlightAware ADS-B (CYYZ)
Fri 04:54:21 AM 41.9463 -78.9824 183° South 456 525 24,100 1,100 Climbing FlightAware ADS-B (CYYZ)
Fri 04:54:51 AM 41.8834 -78.9856 183° South 465 535 24,500 1,017 Climbing FlightAware ADS-B (CYYZ)
Fri 04:55:20 AM 41.8218 -78.9885 183° South 467 537 25,100 1,017 Climbing FlightAware ADS-B (CYYZ)
Fri 04:55:50 AM 41.7525 -78.9917 182° South 476 548 25,500 811 Climbing FlightAware ADS-B (CYYZ)
Fri 04:55:57 AM 41.7660 -78.9911 182° South 476 548 25,600 1,161 Climbing FlightAware ADS-B (EPLB / LUZ)
Fri 04:56:21 AM 41.6854 -78.9947 182° South 478 550 26,100 1,019 Climbing FlightAware ADS-B (CYYZ)
Fri 04:56:50 AM 41.6213 -78.9977 183° South 484 557 26,500 857 Climbing FlightAware ADS-B (CYYZ)
Fri 04:57:03 AM 41.5937 -78.9990 182° South 479 551 26,700 1,000 Climbing FlightAware ADS-B (EPLB / LUZ)
Fri 04:57:20 AM 41.5515 -79.0011 183° South 488 562 27,000 894 Climbing FlightAware ADS-B (CYYZ)
Fri 04:57:50 AM 41.4836 -79.0046 183° South 491 565 27,400 1,000 Climbing FlightAware ADS-B (CYYZ)
Fri 04:58:20 AM 41.4158 -79.0079 182° South 490 564 28,000 1,200 Climbing FlightAware ADS-B (CYYZ)
Fri 04:58:50 AM 41.3482 -79.0110 182° South 490 564 28,600 1,200 Climbing FlightAware ADS-B (CYYZ)
Fri 04:59:20 AM 41.2805 -79.0142 183° South 488 562 29,200 1,100 Climbing FlightAware ADS-B (CYYZ)
Fri 04:59:50 AM 41.2140 -79.0175 183° South 490 564 29,700 1,100 Climbing FlightAware ADS-B (CYYZ)
Fri 05:00:20 AM 41.1446 -79.0210 183° South 488 562 30,300 1,200 Climbing FlightAware ADS-B (CYYZ)
Fri 05:00:50 AM 41.0772 -79.0242 182° South 488 562 30,900 1,200 Climbing FlightAware ADS-B (CYYZ)
Fri 05:01:20 AM 41.0092 -79.0273 183° South 484 557 31,500 1,543 Climbing FlightAware ADS-B (CYYZ)
Fri 05:01:25 AM 41.0037 -79.0276 182° South 482 555 31,800 667 Climbing FlightAware ADS-B (EPLB / LUZ)
Fri 05:02:05 AM 40.9086 -79.0320 183° South 485 558 32,000 169 Climbing FlightAware ADS-B (CYYZ)
Fri 05:02:36 AM 40.8409 -79.0350 183° South 486 559 32,000  Level FlightAware ADS-B (CYYZ)
Fri 05:03:05 AM 40.7736 -79.0381 183° South 486 559 32,000  Level FlightAware ADS-B (CYYZ)
Fri 05:03:35 AM 40.7065 -79.0412 182° South 487 560 32,000  Level FlightAware ADS-B (CYYZ)
Fri 05:04:05 AM 40.6385 -79.0443 182° South 487 560 32,000  Level FlightAware ADS-B (CYYZ)
Fri 05:04:36 AM 40.5708 -79.0475 183° South 488 562 32,000  Level FlightAware ADS-B (CYYZ)
Fri 05:04:53 AM 40.5318 -79.0493 182° South 488 562 32,000  Level FlightAware ADS-B (CYYZ)
Fri 05:05:36 AM 40.4849 -79.0515 182° South 488 562 32,000  Level FlightAware ADS-B (CYYZ)
Fri 05:06:05 AM 40.4034 -79.0553 182° South 488 562 32,000  Level FlightAware ADS-B (CYYZ)
Fri 05:06:31 AM 40.3102 -79.0595 182° South 489 563 32,000  Level FlightAware ADS-B (CYYZ)
Fri 05:10:43 AM 39.7458 -79.0853 182° South 485 558 32,000  Level FlightAware ADS-B
Fri 05:16:36 AM 38.9511 -79.1208 182° South 485 558 32,000  Level FlightAware ADS-B
Fri 05:17:42 AM 38.8043 -79.1273 183° South 482 555 32,000  Level FlightAware ADS-B
Fri 05:18:21 AM 38.7166 -79.1311 183° South 481 554 32,000  Level FlightAware ADS-B
Fri 05:19:00 AM 38.6311 -79.1349 182° South 481 554 32,000  Level FlightAware ADS-B
Fri 05:20:02 AM 38.4939 -79.1408 182° South 479 551 32,000  Level FlightAware ADS-B
Fri 05:20:41 AM 38.4061 -79.1446 182° South 478 550 32,000  Level FlightAware ADS-B
Fri 05:21:22 AM 38.3160 -79.1486 182° South 478 550 32,000  Level FlightAware ADS-B
Fri 05:22:03 AM 38.2266 -79.1524 182° South 477 549 32,000  Level FlightAware ADS-B
Fri 05:22:42 AM 38.1389 -79.1562 182° South 476 548 32,000  Level FlightAware ADS-B
Fri 05:23:23 AM 38.0494 -79.1601 183° South 475 547 32,000  Level FlightAware ADS-B
Fri 05:24:03 AM 37.9625 -79.1638 182° South 475 547 32,000  Level FlightAware ADS-B
Fri 05:24:40 AM 37.8793 -79.1674 182° South 474 545 32,000  Level FlightAware ADS-B
Fri 05:25:22 AM 37.7884 -79.1712 183° South 475 547 32,000  Level FlightAware ADS-B
Fri 05:26:03 AM 37.6979 -79.1752 183° South 476 548 32,000 -81 Level FlightAware ADS-B
Fri 05:26:36 AM 37.6247 -79.1783 182° South 479 551 31,900 -87 Descending FlightAware ADS-B
Fri 05:27:12 AM 37.5464 -79.1816 182° South 482 555 31,900 91 Level FlightAware ADS-B
Fri 05:27:42 AM 37.4783 -79.1844 183° South 483 556 32,000 86 Climbing FlightAware ADS-B
Fri 05:28:22 AM 37.3879 -79.1883 183° South 484 557 32,000  Level FlightAware ADS-B
Fri 05:29:23 AM 37.2513 -79.1942 183° South 484 557 32,000  Level FlightAware ADS-B
Fri 05:30:23 AM 37.1180 -79.1999 183° South 486 559 32,000 330 Level FlightAware ADS-B
Fri 05:35:27 AM 37.3627 -79.1894 183° South 484 557 34,000 190 Climbing FlightAware ADS-B (EFYL / YLI)
Fri 05:40:53 AM 35.6896 -79.2586 182° South 490 564 34,000  Level FlightAware ADS-B (EFYL / YLI)
Fri 05:41:31 AM 35.6081 -79.2620 182° South 491 565 34,000 333 Level FlightAware ADS-B (EFYL / YLI)
Fri 05:42:05 AM 35.5259 -79.2654 182° South 493 567 34,400 675 Climbing FlightAware ADS-B (EFYL / YLI)
Fri 05:42:51 AM 35.4543 -79.2682 182° South 495 570 34,900 732 Climbing FlightAware ADS-B (EFYL / YLI)
Fri 05:43:27 AM 35.3426 -79.2727 182° South 493 567 35,400 771 Climbing FlightAware ADS-B (EFYL / YLI)
Fri 05:44:01 AM 35.2600 -79.2761 182° South 494 568 35,800 545 Climbing FlightAware ADS-B (EFYL / YLI)
Fri 05:44:33 AM 35.1876 -79.2789 182° South 491 565 36,000 167 Climbing FlightAware ADS-B (EFYL / YLI)
Fri 05:45:13 AM 35.1007 -79.2823 182° South 497 572 36,000  Level FlightAware ADS-B (EFYL / YLI)
Fri 05:45:51 AM 35.0095 -79.2861 182° South 498 573 36,000  Level FlightAware ADS-B (EFYL / YLI)
Fri 05:46:44 AM 34.8848 -79.2910 182° South 497 572 36,000  Level FlightAware ADS-B (EFYL / YLI)
Fri 05:48:08 AM 34.6920 -79.2986 182° South 498 573 36,000  Level FlightAware ADS-B (EFYL / YLI)
Fri 05:48:53 AM 34.5979 -79.3024 182° South 497 572 36,000  Level FlightAware ADS-B (EFYL / YLI)
Fri 05:49:32 AM 34.5019 -79.3062 182° South 498 573 36,000  Level FlightAware ADS-B (EFYL / YLI)
Fri 05:50:13 AM 34.4059 -79.3100 182° South 498 573 36,000  Level FlightAware ADS-B (EFYL / YLI)
Fri 05:50:52 AM 34.3261 -79.3131 182° South 499 574 36,000 -65 Level FlightAware ADS-B (EFYL / YLI)
Fri 05:51:45 AM 34.1969 -79.3225 182° South 497 572 35,900 -53 Descending Jacksonville Center
Fri 05:52:45 AM 34.0572 -79.3283 182° South 497 572 35,900  Level Jacksonville Center
Fri 05:53:45 AM 33.9175 -79.3314 181° South 497 572 35,900  Level Jacksonville Center
Fri 05:54:45 AM 33.7800 -79.3394 183° South 497 572 35,900  Level Jacksonville Center
Fri 05:55:45 AM 33.6464 -79.3375 179° South 490 564 35,900  Level Jacksonville Center
Fri 05:56:45 AM 33.5069 -79.3431 182° South 484 557 35,900  Level Jacksonville Center
Fri 05:57:45 AM 33.3692 -79.3486 182° South 496 571 35,900  Level Jacksonville Center
Fri 05:58:45 AM 33.2339 -79.3539 182° South 496 571 35,900  Level Jacksonville Center
Fri 05:59:45 AM 33.0919 -79.3594 182° South 496 571 35,900  Level Jacksonville Center
Fri 06:00:45 AM 32.9522 -79.3650 182° South 496 571 35,900  Level Jacksonville Center
Fri 06:01:45 AM 32.8128 -79.3706 182° South 496 571 35,900  Level Jacksonville Center
Fri 06:02:45 AM 32.6731 -79.3758 182° South 496 571 35,900  Level Jacksonville Center
Fri 06:03:45 AM 32.5333 -79.3839 183° South 496 571 35,900  Level Jacksonville Center
Fri 06:04:45 AM 32.3936 -79.3892 182° South 501 577 35,900  Level Jacksonville Center
Fri 06:05:45 AM 32.2558 -79.3919 181° South 501 577 35,900  Level Jacksonville Center
Fri 06:06:45 AM 32.1142 -79.3997 183° South 501 577 35,900  Level Jacksonville Center
Fri 06:07:45 AM 31.9744 -79.4028 181° South 501 577 35,900  Level Jacksonville Center
Fri 06:08:45 AM 31.8325 -79.4081 182° South 501 577 35,900  Level Jacksonville Center
Fri 06:09:45 AM 31.6931 -79.4158 183° South 501 577 35,900  Level Jacksonville Center
Fri 06:10:45 AM 31.5553 -79.4208 182° South 501 577 35,900  Level Jacksonville Center
Fri 06:11:45 AM 31.4156 -79.4236 181° South 501 577 35,900  Level Jacksonville Center
Fri 06:12:45 AM 31.2781 -79.4311 183° South 496 571 35,900  Level Jacksonville Center
Fri 06:13:45 AM 31.1381 -79.4339 181° South 496 571 35,900  Level Jacksonville Center
Fri 06:14:45 AM 30.9986 -79.4414 183° South 502 578 35,900  Level Jacksonville Center
Fri 06:15:45 AM 30.8586 -79.4442 181° South 502 578 35,900  Level Jacksonville Center
Fri 06:17:32 AM 30.6131 -79.4550 182° South 504 580 35,900  Level Miami Center
Fri 06:18:33 AM 30.4731 -79.4600 182° South 504 580 35,900 15 Level Miami Center
Fri 06:24:21 AM 29.6624 -79.5284 185° South 510 587 36,000 15 Climbing FlightAware ADS-B
Fri 06:25:06 AM 29.5299 -79.5424 184° South 511 588 36,000  Level FlightAware ADS-B
Fri 06:29:04 AM 28.9689 -79.5707 183° South 513 590 36,000  Level FlightAware ADS-B
Fri 06:30:24 AM 28.7769 -79.5808 183° South 516 594 36,000  Level FlightAware ADS-B
Fri 06:31:03 AM 28.6852 -79.5857 183° South 517 595 36,000  Level FlightAware ADS-B
Fri 06:32:24 AM 28.4893 -79.5958 183° South 518 596 36,000  Level FlightAware ADS-B
Fri 06:33:03 AM 28.3955 -79.6006 183° South 518 596 36,000  Level FlightAware ADS-B
Fri 06:33:45 AM 28.2941 -79.6058 183° South 517 595 36,000  Level FlightAware ADS-B
Fri 06:34:25 AM 28.1993 -79.6106 183° South 517 595 36,000  Level FlightAware ADS-B
Fri 06:35:01 AM 28.1131 -79.6151 183° South 517 595 36,000  Level FlightAware ADS-B
Fri 06:35:45 AM 28.0125 -79.6203 183° South 516 594 36,000 -225 Level FlightAware ADS-B
Fri 06:36:21 AM 27.9224 -79.6249 183° South 514 592 35,700 -750 Descending FlightAware ADS-B
Fri 06:37:05 AM 27.8191 -79.6300 183° South 507 583 35,000 -918 Descending FlightAware ADS-B
Fri 06:37:46 AM 27.7257 -79.6348 183° South 511 588 34,400 -1,575 Descending FlightAware ADS-B
Fri 06:38:25 AM 27.6286 -79.6399 183° South 516 594 32,900 -2,550 Descending FlightAware ADS-B
Fri 06:39:06 AM 27.5383 -79.6445 183° South 521 600 31,000 -3,150 Descending FlightAware ADS-B
Fri 06:39:45 AM 27.4370 -79.6495 183° South 527 606 28,700 -3,525 Descending FlightAware ADS-B
Fri 06:40:26 AM 27.3370 -79.6545 183° South 527 606 26,300 -3,333 Descending FlightAware ADS-B
Fri 06:40:57 AM 27.2623 -79.6582 183° South 520 598 24,700 -2,909 Descending FlightAware ADS-B
Fri 06:42:05 AM 27.1027 -79.6663 183° South 496 571 21,500 -2,865 Descending FlightAware ADS-B
Fri 06:42:48 AM 27.0064 -79.6710 183° South 480 552 19,400 -2,973 Descending FlightAware ADS-B
Fri 06:43:58 AM 26.8548 -79.6785 183° South 453 521 15,900 -2,741 Descending FlightAware ADS-B
Fri 06:44:44 AM 26.7669 -79.6825 183° South 421 484 14,100 -1,293 Descending Miami Center
Fri 06:50:14 AM 27.2623 -79.6582 221° Southwest 297 342 7,800 -989 Descending FlightAware ADS-B (RJTF)
Fri 06:50:54 AM 26.2633 -79.9731 221° Southwest 300 345 8,000 128 Climbing Miami Center
Fri 06:51:48 AM 26.2061 -80.0272 220° Southwest 297 342 8,000 -198 Level Miami Center
Fri 06:52:55 AM 26.1650 -80.1044 239° Southwest 302 348 7,600 -981 Descending Miami Center
Fri 06:53:32 AM 26.1492 -80.1692 255° West 307 353 6,300 -1,770 Descending Miami Center
Fri 06:53:56 AM 26.1500 -80.1953 272° West 304 350 5,800 -1,538 Descending Miami Center
Fri 06:54:50 AM 26.1500 -80.2900 270° West 305 351 4,300 -939 Descending Miami Center
Fri 06:55:51 AM 26.1506 -80.3781 270° West 266 306 4,000 -344 Descending Miami Center
Fri 06:56:52 AM 26.1136 -80.4333 233° Southwest 212 244 3,600 -803 Descending Miami Center
Fri 06:57:58 AM 26.0786 -80.3911 133° Southeast 192 221 2,300 -850 Descending Miami Center
Fri 06:58:59 AM 26.0783 -80.3283 90° East 197 227 1,800 -288 Descending Miami Center
Fri 06:59:42 AM 26.0767 -80.2867 93° East 196 226 1,800  Level Miami Center
Fri 07:00:01 AM 26.0775 -80.2778 84° East 198 228 1,800 -667 Level Miami Center
Fri 07:00:36 AM 26.0756 -80.2378 93° East 174 200 1,200 -984 Descending Miami Center
Fri 07:01:02 AM 26.0775 -80.2164 84° East 164 189 800 -684 Descending Miami Center
Fri 07:01:55 AM 26.0769 -80.1822 91° East 121 139 300 -566 Descending Miami Center
Fri 07:04:00 AM 26.0667 -80.1500 103° East  Level FlightAware Approximate

Login

Don't have an account? Register now (free) for customized features, flight alerts, and more!